Laura Ann — V2AR8 — position and weather

sailwx.info

Track history (hours):
 
Tides and Currents Weather Stations Pressure Air Temp Water Temp Dewpoint Dewpoint Depression Visibility Wind Speed Wind Dir Waves Ship Positions

Laura Ann

Last reported at 2017-Sep-21 06:20 UTC. Time now 2017-Sep-23 05:59 UTC.
Position N 44°54' W 000°32'.

Length 134 m; draft 8.5 m.

Type: Ship. MMSI: 305594370.

Date/timePositionNaut miles runAvg speedWind from/ knotsBaromVisibWave heightAir tempDewpointWater temp
2017-Sep-21 06:20N 44°54' W 000°32'0 0.9
2017-Sep-21 06:00N 44°55' W 000°33'4 8.0
2017-Sep-21 05:30N 44°59' W 000°32'612.7
2017-Sep-21 05:00N 45°04' W 000°38'715.0
2017-Sep-21 04:30N 45°10' W 000°43'816.1
2017-Sep-21 04:00N 45°18' W 000°46'917.1
2017-Sep-21 03:31N 45°25' W 000°52'816.8
2017-Sep-21 03:00N 45°32' W 000°60'714.3
2017-Sep-21 02:30N 45°38' W 001°06'816.2
2017-Sep-21 02:01N 45°38' W 001°17'713.4
2017-Sep-21 01:31N 45°36' W 001°26'2 3.9
2017-Sep-21 01:00N 45°36' W 001°29'0 0.0
2017-Sep-20 23:18N 45°36' W 001°29'0 0.0
2017-Sep-20 22:39N 45°36' W 001°29'0 0.1
2017-Sep-20 22:30N 45°36' W 001°29'0 0.0
2017-Sep-20 21:57N 45°36' W 001°29'0 0.1
2017-Sep-20 21:27N 45°36' W 001°29'0 0.0
2017-Sep-20 16:38N 45°36' W 001°29'3611.7
2017-Sep-20 13:34N 46°03' W 002°02'312.2
2017-Sep-20 13:20N 46°05' W 002°05'1112.2
2017-Sep-20 12:26N 46°14' W 002°14'612.0
2017-Sep-20 11:56N 46°18' W 002°21'512.1
2017-Sep-20 11:30N 46°22' W 002°27'612.2
2017-Sep-20 11:00N 46°25' W 002°33'612.2
2017-Sep-20 10:30N 46°29' W 002°40'611.9
2017-Sep-20 10:00N 46°33' W 002°47'612.1
2017-Sep-20 09:29N 46°37' W 002°54'611.9
2017-Sep-20 08:59N 46°41' W 003°00'712.0
2017-Sep-20 08:26N 46°45' W 003°08'512.1
2017-Sep-20 07:59N 46°49' W 003°14'612.1
2017-Sep-20 07:31N 46°53' W 003°20'612.2
2017-Sep-20 07:00N 46°57' W 003°27'714.3
2017-Sep-20 06:29N 47°01' W 003°36'917.5
2017-Sep-20 05:59N 47°07' W 003°46'712.1
2017-Sep-20 05:23N 47°12' W 003°54'512.4
2017-Sep-20 05:00N 47°15' W 003°59'712.3
2017-Sep-20 04:28N 47°19' W 004°07'612.0
2017-Sep-20 04:00N 47°22' W 004°13'1312.2
2017-Sep-20 02:58N 47°31' W 004°27'812.2
2017-Sep-20 02:19N 47°36' W 004°36'411.8
2017-Sep-20 01:58N 47°38' W 004°41'511.5
2017-Sep-20 01:30N 47°42' W 004°47'611.2
2017-Sep-20 01:00N 47°45' W 004°53'611.1
2017-Sep-20 00:30N 47°49' W 004°59'510.6
2017-Sep-20 00:00N 47°52' W 005°06'510.7
2017-Sep-19 23:30N 47°56' W 005°12'1811.4
2017-Sep-19 21:58N 48°10' W 005°28'58 8.9
2017-Sep-19 15:23N 49°07' W 005°09'3111.0
2017-Sep-19 12:31N 49°22' W 004°28'816.6
2017-Sep-19 12:02N 49°27' W 004°17'112.7
2017-Sep-19 12:00N 49°27' W 004°17'1513.1
2017-Sep-19 10:53N 49°34' W 003°57'513.4
2017-Sep-19 10:30N 49°37' W 003°50'713.4
2017-Sep-19 09:59N 49°40' W 003°41'613.0
2017-Sep-19 09:30N 49°44' W 003°33'612.5
2017-Sep-19 09:00N 49°47' W 003°24'611.9
2017-Sep-19 08:30N 49°50' W 003°16'611.3
2017-Sep-19 08:00N 49°52' W 003°09'510.8
2017-Sep-19 07:30N 49°55' W 003°01'510.2
2017-Sep-19 07:00N 49°57' W 002°54'612.1
2017-Sep-19 06:30N 49°59' W 002°45'2411.0
2017-Sep-19 04:17N 49°60' W 002°08'311.6
2017-Sep-19 04:00N 49°59' W 002°03'612.1
2017-Sep-19 03:30N 49°57' W 001°54'612.7
2017-Sep-19 03:00N 49°54' W 001°45'713.7
2017-Sep-19 02:30N 49°52' W 001°35'714.8
2017-Sep-19 02:00N 49°50' W 001°24'815.8
2017-Sep-19 01:30N 49°48' W 001°12'815.3
2017-Sep-19 01:01N 49°45' W 001°01'2114.1
2017-Sep-18 23:31N 49°37' W 000°31'213.3
2017-Sep-18 23:24N 49°37' W 000°28'512.9
2017-Sep-18 23:00N 49°35' W 000°21'612.1
2017-Sep-18 22:30N 49°33' W 000°12'611.7
2017-Sep-18 22:00N 49°32' W 000°04'612.3
2017-Sep-18 21:30N 49°29' E 000°05'4 7.3
2017-Sep-18 21:00N 49°27' E 000°10'0 0.0
2017-Sep-18 20:29N 49°27' E 000°10'0 0.0
2017-Sep-18 19:59N 49°27' E 000°10'0 0.0
2017-Sep-18 19:26N 49°27' E 000°10'0 0.0
2017-Sep-18 18:59N 49°27' E 000°10'0 0.0
2017-Sep-18 18:29N 49°27' E 000°10'0 0.0
2017-Sep-18 17:59N 49°27' E 000°10'0 0.0
2017-Sep-18 17:29N 49°27' E 000°10'0 0.0
2017-Sep-18 16:59N 49°27' E 000°10'0 0.0
2017-Sep-18 16:26N 49°27' E 000°10'0 0.0
2017-Sep-18 15:59N 49°27' E 000°10'0 0.0
2017-Sep-18 15:29N 49°27' E 000°10'0 0.0
2017-Sep-18 14:59N 49°27' E 000°10'0 0.0
2017-Sep-18 14:29N 49°27' E 000°10'0 0.0
2017-Sep-18 13:59N 49°27' E 000°10'0 0.0
2017-Sep-18 13:29N 49°27' E 000°10'0 0.0
2017-Sep-18 12:59N 49°27' E 000°10'0 0.0
2017-Sep-18 12:29N 49°27' E 000°10'0 0.0
2017-Sep-18 11:59N 49°27' E 000°10'0 0.0
2017-Sep-18 11:29N 49°27' E 000°10'0 0.0
2017-Sep-18 10:59N 49°27' E 000°10'0 0.0
2017-Sep-18 10:29N 49°27' E 000°10'0 0.0
2017-Sep-18 09:59N 49°27' E 000°10'0 0.0
2017-Sep-18 09:29N 49°27' E 000°10'0 0.0
2017-Sep-18 08:59N 49°27' E 000°10'0 0.0
2017-Sep-18 08:29N 49°27' E 000°10'0 0.0
2017-Sep-18 07:59N 49°27' E 000°10'0 0.0
2017-Sep-18 07:29N 49°27' E 000°10'0 0.0
2017-Sep-18 06:59N 49°27' E 000°10'0 0.0
2017-Sep-18 06:29N 49°27' E 000°10'0 0.0
2017-Sep-18 05:59N 49°27' E 000°10'0 0.0
2017-Sep-18 05:29N 49°27' E 000°10'0 0.0
2017-Sep-18 04:59N 49°27' E 000°10'0 0.0
2017-Sep-18 04:29N 49°27' E 000°10'0 0.0
2017-Sep-18 03:59N 49°27' E 000°10'0 0.0
2017-Sep-18 03:29N 49°27' E 000°10'0 0.0
2017-Sep-18 02:59N 49°27' E 000°10'0 0.0
2017-Sep-18 02:29N 49°27' E 000°10'0 0.0
2017-Sep-18 01:59N 49°27' E 000°10'0 0.0
2017-Sep-18 01:29N 49°27' E 000°10'0 0.0
2017-Sep-18 00:59N 49°27' E 000°10'0 0.0
2017-Sep-18 00:29N 49°27' E 000°10'0 0.0
2017-Sep-17 23:59N 49°27' E 000°10'0 0.0
2017-Sep-17 23:29N 49°27' E 000°10'0 0.0
2017-Sep-17 22:59N 49°27' E 000°10'0 0.0
2017-Sep-17 22:29N 49°27' E 000°10'0 0.0
2017-Sep-17 21:59N 49°27' E 000°10'0 0.0
2017-Sep-17 21:29N 49°27' E 000°10'0 0.0
2017-Sep-17 20:59N 49°27' E 000°10'0 0.0
2017-Sep-17 20:29N 49°27' E 000°10'0 0.0
2017-Sep-17 19:59N 49°27' E 000°10'0 0.0
2017-Sep-17 19:29N 49°27' E 000°10'0 0.0
2017-Sep-17 18:59N 49°27' E 000°10'0 0.0
2017-Sep-17 18:29N 49°27' E 000°10'0 0.0
2017-Sep-17 18:01N 49°27' E 000°10'2 4.7
2017-Sep-17 17:30N 49°28' E 000°06'2 4.0
2017-Sep-17 17:00N 49°28' E 000°09'0 0.1
2017-Sep-17 16:28N 49°28' E 000°09'0 0.0
2017-Sep-17 15:58N 49°28' E 000°09'0 0.0
2017-Sep-17 15:28N 49°28' E 000°09'0 0.0
2017-Sep-17 14:58N 49°28' E 000°09'0 0.0
2017-Sep-17 14:28N 49°28' E 000°09'0 0.0
2017-Sep-17 13:58N 49°28' E 000°09'0 0.0
2017-Sep-17 13:28N 49°28' E 000°09'0 0.0
2017-Sep-17 12:58N 49°28' E 000°09'0 0.0
2017-Sep-17 12:28N 49°28' E 000°09'0 0.0
2017-Sep-17 11:58N 49°28' E 000°09'0 0.0
2017-Sep-17 11:28N 49°28' E 000°09'0 0.0
2017-Sep-17 10:58N 49°28' E 000°09'0 0.8
2017-Sep-17 10:30N 49°28' E 000°09'510.5
2017-Sep-17 10:00N 49°30' E 000°01'815.8
2017-Sep-17 09:31N 49°32' W 000°10'713.9
2017-Sep-17 09:00N 49°35' W 000°20'2315.9
2017-Sep-17 07:33N 49°43' W 000°54'116.2
2017-Sep-17 07:30N 49°43' W 000°55'815.3
2017-Sep-17 07:01N 49°46' W 001°06'816.8
2017-Sep-17 06:31N 49°49' W 001°18'1019.1
2017-Sep-17 06:00N 49°51' W 001°32'815.0
2017-Sep-17 05:31N 49°51' W 001°44'815.4
2017-Sep-17 05:00N 49°51' W 001°56'3015.5
2017-Sep-17 03:04N 49°49' W 002°43'115.9
2017-Sep-17 03:01N 49°49' W 002°44'2815.5
2017-Sep-17 01:10N 49°36' W 003°23'7415.6
2017-Sep-16 20:27N 48°58' W 005°00'715.4
2017-Sep-16 20:00N 48°55' W 005°09'815.3
2017-Sep-16 19:30N 48°51' W 005°20'27 8.8
2017-Sep-16 16:24N 48°24' W 005°25'716.7
2017-Sep-16 15:58N 48°20' W 005°17'715.6
2017-Sep-16 15:30N 48°17' W 005°07'714.6
2017-Sep-16 15:01N 48°16' W 004°56'917.2
2017-Sep-16 14:31N 48°18' W 004°43'816.1
2017-Sep-16 14:01N 48°21' W 004°32'4 7.3
2017-Sep-16 13:30N 48°23' W 004°28'0 0.0
2017-Sep-16 12:58N 48°23' W 004°28'0 0.0
2017-Sep-16 12:28N 48°23' W 004°28'0 0.0
2017-Sep-16 11:58N 48°23' W 004°28'0 0.0
2017-Sep-16 11:28N 48°23' W 004°28'0 0.0
2017-Sep-16 10:58N 48°23' W 004°28'0 0.0
2017-Sep-16 10:28N 48°23' W 004°28'0 0.0
2017-Sep-16 09:58N 48°23' W 004°28'0 0.0
2017-Sep-16 09:28N 48°23' W 004°28'0 0.3
2017-Sep-16 09:01N 48°23' W 004°28'4 7.1
2017-Sep-16 08:31N 48°21' W 004°32'612.3
2017-Sep-16 08:01N 48°18' W 004°41'510.7
2017-Sep-16 07:30N 48°16' W 004°48'713.1
2017-Sep-16 07:00N 48°13' W 004°56'713.2
2017-Sep-16 06:30N 48°09' W 005°05'612.2
2017-Sep-16 06:00N 48°05' W 005°12'612.3
2017-Sep-16 05:30N 47°59' W 005°09'713.3
2017-Sep-16 05:00N 47°56' W 005°01'713.1
2017-Sep-16 04:31N 47°52' W 004°53'713.1
2017-Sep-16 04:00N 47°49' W 004°45'712.9
2017-Sep-16 03:29N 47°45' W 004°37'713.0
2017-Sep-16 02:58N 47°41' W 004°28'1512.1
2017-Sep-16 01:44N 47°32' W 004°10'312.3
2017-Sep-16 01:30N 47°31' W 004°07'612.4
2017-Sep-16 01:00N 47°27' W 003°59'612.7
2017-Sep-16 00:30N 47°24' W 003°51'713.1
2017-Sep-16 00:00N 47°20' W 003°43'713.0
2017-Sep-15 23:30N 47°17' W 003°35'713.1
2017-Sep-15 23:00N 47°14' W 003°27'613.0
2017-Sep-15 22:30N 47°11' W 003°18'612.9
2017-Sep-15 22:00N 47°08' W 003°09'612.9
2017-Sep-15 21:30N 47°06' W 003°00'713.1
2017-Sep-15 21:00N 47°03' W 002°51'813.0
2017-Sep-15 20:24N 47°01' W 002°40'512.9
2017-Sep-15 20:00N 47°03' W 002°33'612.8
2017-Sep-15 19:30N 47°06' W 002°25'611.4
2017-Sep-15 19:00N 47°10' W 002°19'714.4
2017-Sep-15 18:30N 47°15' W 002°13'3 6.8
2017-Sep-15 18:00N 47°18' W 002°09'0 0.0
2017-Sep-15 17:29N 47°18' W 002°09'0 0.0
2017-Sep-15 16:59N 47°18' W 002°09'0 0.0
2017-Sep-15 16:29N 47°18' W 002°09'0 0.0
2017-Sep-15 15:59N 47°18' W 002°09'0 0.0
2017-Sep-15 15:29N 47°18' W 002°09'0 0.0
2017-Sep-15 14:50N 47°18' W 002°09'0 0.0
2017-Sep-15 14:29N 47°18' W 002°09'0 0.0
2017-Sep-15 13:50N 47°18' W 002°09'0 0.0
2017-Sep-15 13:29N 47°18' W 002°09'0 0.0
2017-Sep-15 12:56N 47°18' W 002°09'0 0.0
2017-Sep-15 12:26N 47°18' W 002°09'0 0.0
2017-Sep-15 11:56N 47°18' W 002°09'0 0.0
2017-Sep-15 11:29N 47°18' W 002°09'0 0.3
2017-Sep-15 11:00N 47°18' W 002°09'611.5
2017-Sep-15 10:30N 47°14' W 002°16'714.3
2017-Sep-15 10:00N 47°08' W 002°21'712.5
2017-Sep-15 09:29N 47°03' W 002°29'1812.5
2017-Sep-15 08:02N 46°46' W 002°36'615.1
2017-Sep-15 07:39N 46°40' W 002°33'314.6
2017-Sep-15 07:27N 46°38' W 002°32'714.9
2017-Sep-15 07:00N 46°33' W 002°25'714.9
2017-Sep-15 06:30N 46°27' W 002°19'714.7
2017-Sep-15 06:00N 46°21' W 002°12'814.9
2017-Sep-15 05:29N 46°15' W 002°06'714.9
2017-Sep-15 05:00N 46°09' W 001°59'814.9
2017-Sep-15 04:29N 46°03' W 001°53'1014.8
2017-Sep-15 03:48N 45°55' W 001°43'2014.8
2017-Sep-15 02:29N 45°39' W 001°27'511.1
2017-Sep-15 02:00N 45°37' W 001°20'816.3
2017-Sep-15 01:30N 45°39' W 001°08'714.9
2017-Sep-15 01:00N 45°33' W 001°02'816.0
2017-Sep-15 00:30N 45°27' W 000°54'714.9
2017-Sep-15 00:00N 45°21' W 000°48'5 0.2
2017-Sep-13 20:45N 45°16' W 000°45'417.8
2017-Sep-13 20:30N 45°20' W 000°47'917.5
2017-Sep-13 20:00N 45°27' W 000°54'917.5
2017-Sep-13 19:31N 45°34' W 001°02'815.2
2017-Sep-13 19:00N 45°39' W 001°10'918.3
2017-Sep-13 18:30N 45°36' W 001°23'2117.4
2017-Sep-13 17:19N 45°55' W 001°35'516.8
2017-Sep-13 17:00N 46°00' W 001°37'714.8
2017-Sep-13 16:30N 46°08' W 001°36'815.8
2017-Sep-13 16:01N 46°07' W 001°25'713.4
2017-Sep-13 15:31N 46°07' W 001°15'3 5.0
2017-Sep-13 14:58N 46°09' W 001°13'0 0.0
2017-Sep-13 14:28N 46°09' W 001°13'0 0.0
2017-Sep-13 13:58N 46°09' W 001°13'0 0.0
2017-Sep-13 13:28N 46°09' W 001°13'0 0.0
2017-Sep-13 12:55N 46°09' W 001°13'0 0.0
2017-Sep-13 12:28N 46°09' W 001°13'0 0.0
2017-Sep-13 11:58N 46°09' W 001°13'0 0.0
2017-Sep-13 11:28N 46°09' W 001°13'0 0.0
2017-Sep-13 10:58N 46°09' W 001°13'0 0.4
2017-Sep-13 10:31N 46°09' W 001°14'4 7.4
2017-Sep-13 10:01N 46°06' W 001°16'510.7
2017-Sep-13 09:31N 46°06' W 001°24'611.8
2017-Sep-13 09:01N 46°07' W 001°32'612.0
2017-Sep-13 08:31N 46°08' W 001°41'611.7
2017-Sep-13 08:01N 46°11' W 001°48'611.8
2017-Sep-13 07:31N 46°14' W 001°55'611.8
2017-Sep-13 06:58N 46°18' W 002°03'511.7
2017-Sep-13 06:31N 46°22' W 002°08'714.6
2017-Sep-13 06:00N 46°26' W 002°17'5018.6
2017-Sep-13 03:18N 46°57' W 003°15'818.8
2017-Sep-13 02:52N 47°01' W 003°25'718.2
2017-Sep-13 02:30N 47°05' W 003°32'1318.4
2017-Sep-13 01:48N 47°13' W 003°48'4818.7
2017-Sep-12 23:14N 47°42' W 004°44'418.8
2017-Sep-12 23:01N 47°45' W 004°49'1019.0
2017-Sep-12 22:31N 47°51' W 005°01'11311.1
2017-Sep-12 12:19N 49°35' W 003°55'516.0
2017-Sep-12 11:58N 49°38' W 003°48'815.9
2017-Sep-12 11:30N 49°42' W 003°37'815.7
2017-Sep-12 11:01N 49°46' W 003°27'815.3
2017-Sep-12 10:30N 49°50' W 003°17'815.3
2017-Sep-12 10:01N 49°53' W 003°07'815.5
2017-Sep-12 09:31N 49°57' W 002°56'815.6
2017-Sep-12 09:01N 49°59' W 002°44'1915.9
2017-Sep-12 07:48N 50°00' W 002°15'517.4
2017-Sep-12 07:30N 49°58' W 002°07'917.8
2017-Sep-12 07:00N 49°56' W 001°54'918.8
2017-Sep-12 06:30N 49°54' W 001°40'1019.3
2017-Sep-12 06:00N 49°50' W 001°26'1020.0
2017-Sep-12 05:30N 49°47' W 001°11'1019.1
2017-Sep-12 05:00N 49°44' W 000°57'2017.9
2017-Sep-12 03:53N 49°37' W 000°28'616.7
2017-Sep-12 03:31N 49°35' W 000°19'816.2
2017-Sep-12 03:01N 49°31' W 000°08'713.2
2017-Sep-12 02:30N 49°30' E 000°02'5 9.6
2017-Sep-12 02:00N 49°28' E 000°09'0 0.0
2017-Sep-12 01:28N 49°28' E 000°09'0 0.0
2017-Sep-12 00:58N 49°28' E 000°09'0 0.0
2017-Sep-12 00:28N 49°28' E 000°09'0 0.0
2017-Sep-11 23:58N 49°28' E 000°09'0 0.0
2017-Sep-11 23:28N 49°28' E 000°09'0 0.0
2017-Sep-11 22:58N 49°28' E 000°09'0 0.0
2017-Sep-11 22:28N 49°28' E 000°09'0 0.0
2017-Sep-11 21:58N 49°28' E 000°09'0 0.0
2017-Sep-11 21:28N 49°28' E 000°09'0 0.0
2017-Sep-11 20:58N 49°28' E 000°09'0 0.0
2017-Sep-11 20:28N 49°28' E 000°09'0 0.0
2017-Sep-11 19:58N 49°28' E 000°09'0 0.0
2017-Sep-11 19:28N 49°28' E 000°09'0 0.0
2017-Sep-11 18:58N 49°28' E 000°09'0 0.0
2017-Sep-11 18:28N 49°28' E 000°09'0 0.0
2017-Sep-11 17:58N 49°28' E 000°09'0 0.0
2017-Sep-11 17:28N 49°28' E 000°09'0 1.0
2017-Sep-11 17:00N 49°28' E 000°09'1 2.6
2017-Sep-11 16:30N 49°28' E 000°07'2 4.2
2017-Sep-11 16:00N 49°27' E 000°10'0 0.0
2017-Sep-11 15:29N 49°27' E 000°10'0 0.0
2017-Sep-11 14:59N 49°27' E 000°10'0 0.0
2017-Sep-11 14:29N 49°27' E 000°10'0 0.0
2017-Sep-11 13:59N 49°27' E 000°10'0 0.0
2017-Sep-11 13:29N 49°27' E 000°10'0 0.0
2017-Sep-11 12:59N 49°27' E 000°10'0 0.0
2017-Sep-11 12:29N 49°27' E 000°10'0 0.0
2017-Sep-11 11:59N 49°27' E 000°10'0 0.0
2017-Sep-11 11:29N 49°27' E 000°10'0 0.0
2017-Sep-11 10:59N 49°27' E 000°10'0 0.0
2017-Sep-11 10:29N 49°27' E 000°10'0 0.0
2017-Sep-11 09:59N 49°27' E 000°10'0 0.0
2017-Sep-11 09:29N 49°27' E 000°10'0 0.0
2017-Sep-11 08:56N 49°27' E 000°10'0 0.0
2017-Sep-11 08:29N 49°27' E 000°10'0 0.0
2017-Sep-11 07:59N 49°27' E 000°10'0 0.0
2017-Sep-11 07:29N 49°27' E 000°10'0 0.0
2017-Sep-11 06:59N 49°27' E 000°10'0 0.0
2017-Sep-11 06:29N 49°27' E 000°10'  
Track history (hours):
 
Tides and Currents Weather Stations Pressure Air Temp Water Temp Dewpoint Dewpoint Depression Visibility Wind Speed Wind Dir Waves Ship Positions

Laura Ann

Last reported at 2017-Sep-21 06:20 UTC. Time now 2017-Sep-23 05:59 UTC.
Position N 44°54' W 000°32'.

Length 134 m; draft 8.5 m.

Type: Ship. MMSI: 305594370.

Date/timePositionNaut miles runAvg speedWind from/ knotsBaromVisibWave heightAir tempDewpointWater temp
2017-Sep-21 06:20N 44°54' W 000°32'0 0.9
2017-Sep-21 06:00N 44°55' W 000°33'4 8.0
2017-Sep-21 05:30N 44°59' W 000°32'612.7
2017-Sep-21 05:00N 45°04' W 000°38'715.0
2017-Sep-21 04:30N 45°10' W 000°43'816.1
2017-Sep-21 04:00N 45°18' W 000°46'917.1
2017-Sep-21 03:31N 45°25' W 000°52'816.8
2017-Sep-21 03:00N 45°32' W 000°60'714.3
2017-Sep-21 02:30N 45°38' W 001°06'816.2
2017-Sep-21 02:01N 45°38' W 001°17'713.4
2017-Sep-21 01:31N 45°36' W 001°26'2 3.9
2017-Sep-21 01:00N 45°36' W 001°29'0 0.0
2017-Sep-20 23:18N 45°36' W 001°29'0 0.0
2017-Sep-20 22:39N 45°36' W 001°29'0 0.1
2017-Sep-20 22:30N 45°36' W 001°29'0 0.0
2017-Sep-20 21:57N 45°36' W 001°29'0 0.1
2017-Sep-20 21:27N 45°36' W 001°29'0 0.0
2017-Sep-20 16:38N 45°36' W 001°29'3611.7
2017-Sep-20 13:34N 46°03' W 002°02'312.2
2017-Sep-20 13:20N 46°05' W 002°05'1112.2
2017-Sep-20 12:26N 46°14' W 002°14'612.0
2017-Sep-20 11:56N 46°18' W 002°21'512.1
2017-Sep-20 11:30N 46°22' W 002°27'612.2
2017-Sep-20 11:00N 46°25' W 002°33'612.2
2017-Sep-20 10:30N 46°29' W 002°40'611.9
2017-Sep-20 10:00N 46°33' W 002°47'612.1
2017-Sep-20 09:29N 46°37' W 002°54'611.9
2017-Sep-20 08:59N 46°41' W 003°00'712.0
2017-Sep-20 08:26N 46°45' W 003°08'512.1
2017-Sep-20 07:59N 46°49' W 003°14'612.1
2017-Sep-20 07:31N 46°53' W 003°20'612.2
2017-Sep-20 07:00N 46°57' W 003°27'714.3
2017-Sep-20 06:29N 47°01' W 003°36'917.5
2017-Sep-20 05:59N 47°07' W 003°46'712.1
2017-Sep-20 05:23N 47°12' W 003°54'512.4
2017-Sep-20 05:00N 47°15' W 003°59'712.3
2017-Sep-20 04:28N 47°19' W 004°07'612.0
2017-Sep-20 04:00N 47°22' W 004°13'1312.2
2017-Sep-20 02:58N 47°31' W 004°27'812.2
2017-Sep-20 02:19N 47°36' W 004°36'411.8
2017-Sep-20 01:58N 47°38' W 004°41'511.5
2017-Sep-20 01:30N 47°42' W 004°47'611.2
2017-Sep-20 01:00N 47°45' W 004°53'611.1
2017-Sep-20 00:30N 47°49' W 004°59'510.6
2017-Sep-20 00:00N 47°52' W 005°06'510.7
2017-Sep-19 23:30N 47°56' W 005°12'1811.4
2017-Sep-19 21:58N 48°10' W 005°28'58 8.9
2017-Sep-19 15:23N 49°07' W 005°09'3111.0
2017-Sep-19 12:31N 49°22' W 004°28'816.6
2017-Sep-19 12:02N 49°27' W 004°17'112.7
2017-Sep-19 12:00N 49°27' W 004°17'1513.1
2017-Sep-19 10:53N 49°34' W 003°57'513.4
2017-Sep-19 10:30N 49°37' W 003°50'713.4
2017-Sep-19 09:59N 49°40' W 003°41'613.0
2017-Sep-19 09:30N 49°44' W 003°33'612.5
2017-Sep-19 09:00N 49°47' W 003°24'611.9
2017-Sep-19 08:30N 49°50' W 003°16'611.3
2017-Sep-19 08:00N 49°52' W 003°09'510.8
2017-Sep-19 07:30N 49°55' W 003°01'510.2
2017-Sep-19 07:00N 49°57' W 002°54'612.1
2017-Sep-19 06:30N 49°59' W 002°45'2411.0
2017-Sep-19 04:17N 49°60' W 002°08'311.6
2017-Sep-19 04:00N 49°59' W 002°03'612.1
2017-Sep-19 03:30N 49°57' W 001°54'612.7
2017-Sep-19 03:00N 49°54' W 001°45'713.7
2017-Sep-19 02:30N 49°52' W 001°35'714.8
2017-Sep-19 02:00N 49°50' W 001°24'815.8
2017-Sep-19 01:30N 49°48' W 001°12'815.3
2017-Sep-19 01:01N 49°45' W 001°01'2114.1
2017-Sep-18 23:31N 49°37' W 000°31'213.3
2017-Sep-18 23:24N 49°37' W 000°28'512.9
2017-Sep-18 23:00N 49°35' W 000°21'612.1
2017-Sep-18 22:30N 49°33' W 000°12'611.7
2017-Sep-18 22:00N 49°32' W 000°04'612.3
2017-Sep-18 21:30N 49°29' E 000°05'4 7.3
2017-Sep-18 21:00N 49°27' E 000°10'0 0.0
2017-Sep-18 20:29N 49°27' E 000°10'0 0.0
2017-Sep-18 19:59N 49°27' E 000°10'0 0.0
2017-Sep-18 19:26N 49°27' E 000°10'0 0.0
2017-Sep-18 18:59N 49°27' E 000°10'0 0.0
2017-Sep-18 18:29N 49°27' E 000°10'0 0.0
2017-Sep-18 17:59N 49°27' E 000°10'0 0.0
2017-Sep-18 17:29N 49°27' E 000°10'0 0.0
2017-Sep-18 16:59N 49°27' E 000°10'0 0.0
2017-Sep-18 16:26N 49°27' E 000°10'0 0.0
2017-Sep-18 15:59N 49°27' E 000°10'0 0.0
2017-Sep-18 15:29N 49°27' E 000°10'0 0.0
2017-Sep-18 14:59N 49°27' E 000°10'0 0.0
2017-Sep-18 14:29N 49°27' E 000°10'0 0.0
2017-Sep-18 13:59N 49°27' E 000°10'0 0.0
2017-Sep-18 13:29N 49°27' E 000°10'0 0.0
2017-Sep-18 12:59N 49°27' E 000°10'0 0.0
2017-Sep-18 12:29N 49°27' E 000°10'0 0.0
2017-Sep-18 11:59N 49°27' E 000°10'0 0.0
2017-Sep-18 11:29N 49°27' E 000°10'0 0.0
2017-Sep-18 10:59N 49°27' E 000°10'0 0.0
2017-Sep-18 10:29N 49°27' E 000°10'0 0.0
2017-Sep-18 09:59N 49°27' E 000°10'0 0.0
2017-Sep-18 09:29N 49°27' E 000°10'0 0.0
2017-Sep-18 08:59N 49°27' E 000°10'0 0.0
2017-Sep-18 08:29N 49°27' E 000°10'0 0.0
2017-Sep-18 07:59N 49°27' E 000°10'0 0.0
2017-Sep-18 07:29N 49°27' E 000°10'0 0.0
2017-Sep-18 06:59N 49°27' E 000°10'0 0.0
2017-Sep-18 06:29N 49°27' E 000°10'0 0.0
2017-Sep-18 05:59N 49°27' E 000°10'0 0.0
2017-Sep-18 05:29N 49°27' E 000°10'0 0.0
2017-Sep-18 04:59N 49°27' E 000°10'0 0.0
2017-Sep-18 04:29N 49°27' E 000°10'0 0.0
2017-Sep-18 03:59N 49°27' E 000°10'0 0.0
2017-Sep-18 03:29N 49°27' E 000°10'0 0.0
2017-Sep-18 02:59N 49°27' E 000°10'0 0.0
2017-Sep-18 02:29N 49°27' E 000°10'0 0.0
2017-Sep-18 01:59N 49°27' E 000°10'0 0.0
2017-Sep-18 01:29N 49°27' E 000°10'0 0.0
2017-Sep-18 00:59N 49°27' E 000°10'0 0.0
2017-Sep-18 00:29N 49°27' E 000°10'0 0.0
2017-Sep-17 23:59N 49°27' E 000°10'0 0.0
2017-Sep-17 23:29N 49°27' E 000°10'0 0.0
2017-Sep-17 22:59N 49°27' E 000°10'0 0.0
2017-Sep-17 22:29N 49°27' E 000°10'0 0.0
2017-Sep-17 21:59N 49°27' E 000°10'0 0.0
2017-Sep-17 21:29N 49°27' E 000°10'0 0.0
2017-Sep-17 20:59N 49°27' E 000°10'0 0.0
2017-Sep-17 20:29N 49°27' E 000°10'0 0.0
2017-Sep-17 19:59N 49°27' E 000°10'0 0.0
2017-Sep-17 19:29N 49°27' E 000°10'0 0.0
2017-Sep-17 18:59N 49°27' E 000°10'0 0.0
2017-Sep-17 18:29N 49°27' E 000°10'0 0.0
2017-Sep-17 18:01N 49°27' E 000°10'2 4.7
2017-Sep-17 17:30N 49°28' E 000°06'2 4.0
2017-Sep-17 17:00N 49°28' E 000°09'0 0.1
2017-Sep-17 16:28N 49°28' E 000°09'0 0.0
2017-Sep-17 15:58N 49°28' E 000°09'0 0.0
2017-Sep-17 15:28N 49°28' E 000°09'0 0.0
2017-Sep-17 14:58N 49°28' E 000°09'0 0.0
2017-Sep-17 14:28N 49°28' E 000°09'0 0.0
2017-Sep-17 13:58N 49°28' E 000°09'0 0.0
2017-Sep-17 13:28N 49°28' E 000°09'0 0.0
2017-Sep-17 12:58N 49°28' E 000°09'0 0.0
2017-Sep-17 12:28N 49°28' E 000°09'0 0.0
2017-Sep-17 11:58N 49°28' E 000°09'0 0.0
2017-Sep-17 11:28N 49°28' E 000°09'0 0.0
2017-Sep-17 10:58N 49°28' E 000°09'0 0.8
2017-Sep-17 10:30N 49°28' E 000°09'510.5
2017-Sep-17 10:00N 49°30' E 000°01'815.8
2017-Sep-17 09:31N 49°32' W 000°10'713.9
2017-Sep-17 09:00N 49°35' W 000°20'2315.9
2017-Sep-17 07:33N 49°43' W 000°54'116.2
2017-Sep-17 07:30N 49°43' W 000°55'815.3
2017-Sep-17 07:01N 49°46' W 001°06'816.8
2017-Sep-17 06:31N 49°49' W 001°18'1019.1
2017-Sep-17 06:00N 49°51' W 001°32'815.0
2017-Sep-17 05:31N 49°51' W 001°44'815.4
2017-Sep-17 05:00N 49°51' W 001°56'3015.5
2017-Sep-17 03:04N 49°49' W 002°43'115.9
2017-Sep-17 03:01N 49°49' W 002°44'2815.5
2017-Sep-17 01:10N 49°36' W 003°23'7415.6
2017-Sep-16 20:27N 48°58' W 005°00'715.4
2017-Sep-16 20:00N 48°55' W 005°09'815.3
2017-Sep-16 19:30N 48°51' W 005°20'27 8.8
2017-Sep-16 16:24N 48°24' W 005°25'716.7
2017-Sep-16 15:58N 48°20' W 005°17'715.6
2017-Sep-16 15:30N 48°17' W 005°07'714.6
2017-Sep-16 15:01N 48°16' W 004°56'917.2
2017-Sep-16 14:31N 48°18' W 004°43'816.1
2017-Sep-16 14:01N 48°21' W 004°32'4 7.3
2017-Sep-16 13:30N 48°23' W 004°28'0 0.0
2017-Sep-16 12:58N 48°23' W 004°28'0 0.0
2017-Sep-16 12:28N 48°23' W 004°28'0 0.0
2017-Sep-16 11:58N 48°23' W 004°28'0 0.0
2017-Sep-16 11:28N 48°23' W 004°28'0 0.0
2017-Sep-16 10:58N 48°23' W 004°28'0 0.0
2017-Sep-16 10:28N 48°23' W 004°28'0 0.0
2017-Sep-16 09:58N 48°23' W 004°28'0 0.0
2017-Sep-16 09:28N 48°23' W 004°28'0 0.3
2017-Sep-16 09:01N 48°23' W 004°28'4 7.1
2017-Sep-16 08:31N 48°21' W 004°32'612.3
2017-Sep-16 08:01N 48°18' W 004°41'510.7
2017-Sep-16 07:30N 48°16' W 004°48'713.1
2017-Sep-16 07:00N 48°13' W 004°56'713.2
2017-Sep-16 06:30N 48°09' W 005°05'612.2
2017-Sep-16 06:00N 48°05' W 005°12'612.3
2017-Sep-16 05:30N 47°59' W 005°09'713.3
2017-Sep-16 05:00N 47°56' W 005°01'713.1
2017-Sep-16 04:31N 47°52' W 004°53'713.1
2017-Sep-16 04:00N 47°49' W 004°45'712.9
2017-Sep-16 03:29N 47°45' W 004°37'713.0
2017-Sep-16 02:58N 47°41' W 004°28'1512.1
2017-Sep-16 01:44N 47°32' W 004°10'312.3
2017-Sep-16 01:30N 47°31' W 004°07'612.4
2017-Sep-16 01:00N 47°27' W 003°59'612.7
2017-Sep-16 00:30N 47°24' W 003°51'713.1
2017-Sep-16 00:00N 47°20' W 003°43'713.0
2017-Sep-15 23:30N 47°17' W 003°35'713.1
2017-Sep-15 23:00N 47°14' W 003°27'613.0
2017-Sep-15 22:30N 47°11' W 003°18'612.9
2017-Sep-15 22:00N 47°08' W 003°09'612.9
2017-Sep-15 21:30N 47°06' W 003°00'713.1
2017-Sep-15 21:00N 47°03' W 002°51'813.0
2017-Sep-15 20:24N 47°01' W 002°40'512.9
2017-Sep-15 20:00N 47°03' W 002°33'612.8
2017-Sep-15 19:30N 47°06' W 002°25'611.4
2017-Sep-15 19:00N 47°10' W 002°19'714.4
2017-Sep-15 18:30N 47°15' W 002°13'3 6.8
2017-Sep-15 18:00N 47°18' W 002°09'0 0.0
2017-Sep-15 17:29N 47°18' W 002°09'0 0.0
2017-Sep-15 16:59N 47°18' W 002°09'0 0.0
2017-Sep-15 16:29N 47°18' W 002°09'0 0.0
2017-Sep-15 15:59N 47°18' W 002°09'0 0.0
2017-Sep-15 15:29N 47°18' W 002°09'0 0.0
2017-Sep-15 14:50N 47°18' W 002°09'0 0.0
2017-Sep-15 14:29N 47°18' W 002°09'0 0.0
2017-Sep-15 13:50N 47°18' W 002°09'0 0.0
2017-Sep-15 13:29N 47°18' W 002°09'0 0.0
2017-Sep-15 12:56N 47°18' W 002°09'0 0.0
2017-Sep-15 12:26N 47°18' W 002°09'0 0.0
2017-Sep-15 11:56N 47°18' W 002°09'0 0.0
2017-Sep-15 11:29N 47°18' W 002°09'0 0.3
2017-Sep-15 11:00N 47°18' W 002°09'611.5
2017-Sep-15 10:30N 47°14' W 002°16'714.3
2017-Sep-15 10:00N 47°08' W 002°21'712.5
2017-Sep-15 09:29N 47°03' W 002°29'1812.5
2017-Sep-15 08:02N 46°46' W 002°36'615.1
2017-Sep-15 07:39N 46°40' W 002°33'314.6
2017-Sep-15 07:27N 46°38' W 002°32'714.9
2017-Sep-15 07:00N 46°33' W 002°25'714.9
2017-Sep-15 06:30N 46°27' W 002°19'714.7
2017-Sep-15 06:00N 46°21' W 002°12'814.9
2017-Sep-15 05:29N 46°15' W 002°06'714.9
2017-Sep-15 05:00N 46°09' W 001°59'814.9
2017-Sep-15 04:29N 46°03' W 001°53'1014.8
2017-Sep-15 03:48N 45°55' W 001°43'2014.8
2017-Sep-15 02:29N 45°39' W 001°27'511.1
2017-Sep-15 02:00N 45°37' W 001°20'816.3
2017-Sep-15 01:30N 45°39' W 001°08'714.9
2017-Sep-15 01:00N 45°33' W 001°02'816.0
2017-Sep-15 00:30N 45°27' W 000°54'714.9
2017-Sep-15 00:00N 45°21' W 000°48'5 0.2
2017-Sep-13 20:45N 45°16' W 000°45'417.8
2017-Sep-13 20:30N 45°20' W 000°47'917.5
2017-Sep-13 20:00N 45°27' W 000°54'917.5
2017-Sep-13 19:31N 45°34' W 001°02'815.2
2017-Sep-13 19:00N 45°39' W 001°10'918.3
2017-Sep-13 18:30N 45°36' W 001°23'2117.4
2017-Sep-13 17:19N 45°55' W 001°35'516.8
2017-Sep-13 17:00N 46°00' W 001°37'714.8
2017-Sep-13 16:30N 46°08' W 001°36'815.8
2017-Sep-13 16:01N 46°07' W 001°25'713.4
2017-Sep-13 15:31N 46°07' W 001°15'3 5.0
2017-Sep-13 14:58N 46°09' W 001°13'0 0.0
2017-Sep-13 14:28N 46°09' W 001°13'0 0.0
2017-Sep-13 13:58N 46°09' W 001°13'0 0.0
2017-Sep-13 13:28N 46°09' W 001°13'0 0.0
2017-Sep-13 12:55N 46°09' W 001°13'0 0.0
2017-Sep-13 12:28N 46°09' W 001°13'0 0.0
2017-Sep-13 11:58N 46°09' W 001°13'0 0.0
2017-Sep-13 11:28N 46°09' W 001°13'0 0.0
2017-Sep-13 10:58N 46°09' W 001°13'0 0.4
2017-Sep-13 10:31N 46°09' W 001°14'4 7.4
2017-Sep-13 10:01N 46°06' W 001°16'510.7
2017-Sep-13 09:31N 46°06' W 001°24'611.8
2017-Sep-13 09:01N 46°07' W 001°32'612.0
2017-Sep-13 08:31N 46°08' W 001°41'611.7
2017-Sep-13 08:01N 46°11' W 001°48'611.8
2017-Sep-13 07:31N 46°14' W 001°55'611.8
2017-Sep-13 06:58N 46°18' W 002°03'511.7
2017-Sep-13 06:31N 46°22' W 002°08'714.6
2017-Sep-13 06:00N 46°26' W 002°17'5018.6
2017-Sep-13 03:18N 46°57' W 003°15'818.8
2017-Sep-13 02:52N 47°01' W 003°25'718.2
2017-Sep-13 02:30N 47°05' W 003°32'1318.4
2017-Sep-13 01:48N 47°13' W 003°48'4818.7
2017-Sep-12 23:14N 47°42' W 004°44'418.8
2017-Sep-12 23:01N 47°45' W 004°49'1019.0
2017-Sep-12 22:31N 47°51' W 005°01'11311.1
2017-Sep-12 12:19N 49°35' W 003°55'516.0
2017-Sep-12 11:58N 49°38' W 003°48'815.9
2017-Sep-12 11:30N 49°42' W 003°37'815.7
2017-Sep-12 11:01N 49°46' W 003°27'815.3
2017-Sep-12 10:30N 49°50' W 003°17'815.3
2017-Sep-12 10:01N 49°53' W 003°07'815.5
2017-Sep-12 09:31N 49°57' W 002°56'815.6
2017-Sep-12 09:01N 49°59' W 002°44'1915.9
2017-Sep-12 07:48N 50°00' W 002°15'517.4
2017-Sep-12 07:30N 49°58' W 002°07'917.8
2017-Sep-12 07:00N 49°56' W 001°54'918.8
2017-Sep-12 06:30N 49°54' W 001°40'1019.3
2017-Sep-12 06:00N 49°50' W 001°26'1020.0
2017-Sep-12 05:30N 49°47' W 001°11'1019.1
2017-Sep-12 05:00N 49°44' W 000°57'2017.9
2017-Sep-12 03:53N 49°37' W 000°28'616.7
2017-Sep-12 03:31N 49°35' W 000°19'816.2
2017-Sep-12 03:01N 49°31' W 000°08'713.2
2017-Sep-12 02:30N 49°30' E 000°02'5 9.6
2017-Sep-12 02:00N 49°28' E 000°09'0 0.0
2017-Sep-12 01:28N 49°28' E 000°09'0 0.0
2017-Sep-12 00:58N 49°28' E 000°09'0 0.0
2017-Sep-12 00:28N 49°28' E 000°09'0 0.0
2017-Sep-11 23:58N 49°28' E 000°09'0 0.0
2017-Sep-11 23:28N 49°28' E 000°09'0 0.0
2017-Sep-11 22:58N 49°28' E 000°09'0 0.0
2017-Sep-11 22:28N 49°28' E 000°09'0 0.0
2017-Sep-11 21:58N 49°28' E 000°09'0 0.0
2017-Sep-11 21:28N 49°28' E 000°09'0 0.0
2017-Sep-11 20:58N 49°28' E 000°09'0 0.0
2017-Sep-11 20:28N 49°28' E 000°09'0 0.0
2017-Sep-11 19:58N 49°28' E 000°09'0 0.0
2017-Sep-11 19:28N 49°28' E 000°09'0 0.0
2017-Sep-11 18:58N 49°28' E 000°09'0 0.0
2017-Sep-11 18:28N 49°28' E 000°09'0 0.0
2017-Sep-11 17:58N 49°28' E 000°09'0 0.0
2017-Sep-11 17:28N 49°28' E 000°09'0 1.0
2017-Sep-11 17:00N 49°28' E 000°09'1 2.6
2017-Sep-11 16:30N 49°28' E 000°07'2 4.2
2017-Sep-11 16:00N 49°27' E 000°10'0 0.0
2017-Sep-11 15:29N 49°27' E 000°10'0 0.0
2017-Sep-11 14:59N 49°27' E 000°10'0 0.0
2017-Sep-11 14:29N 49°27' E 000°10'0 0.0
2017-Sep-11 13:59N 49°27' E 000°10'0 0.0
2017-Sep-11 13:29N 49°27' E 000°10'0 0.0
2017-Sep-11 12:59N 49°27' E 000°10'0 0.0
2017-Sep-11 12:29N 49°27' E 000°10'0 0.0
2017-Sep-11 11:59N 49°27' E 000°10'0 0.0
2017-Sep-11 11:29N 49°27' E 000°10'0 0.0
2017-Sep-11 10:59N 49°27' E 000°10'0 0.0
2017-Sep-11 10:29N 49°27' E 000°10'0 0.0
2017-Sep-11 09:59N 49°27' E 000°10'0 0.0
2017-Sep-11 09:29N 49°27' E 000°10'0 0.0
2017-Sep-11 08:56N 49°27' E 000°10'0 0.0
2017-Sep-11 08:29N 49°27' E 000°10'0 0.0
2017-Sep-11 07:59N 49°27' E 000°10'0 0.0
2017-Sep-11 07:29N 49°27' E 000°10'0 0.0
2017-Sep-11 06:59N 49°27' E 000°10'0 0.0
2017-Sep-11 06:29N 49°27' E 000°10'  

Dump ship's entire track history